createdAt,value
2018-08-03T00:02:01.583Z,65.70
2018-08-03T00:04:30.278Z,65.90
2018-08-03T00:09:27.075Z,65.60
2018-08-03T00:11:55.597Z,66.20
2018-08-03T00:14:24.221Z,66.30
2018-08-03T00:16:52.957Z,66.20
2018-08-03T00:19:21.534Z,66.20
2018-08-03T00:21:50.188Z,66.20
2018-08-03T00:24:18.969Z,67.40
2018-08-03T00:26:47.852Z,66.40
2018-08-03T00:29:16.403Z,66.20
2018-08-03T00:31:45.003Z,66.30
2018-08-03T00:34:13.566Z,66.70
2018-08-03T00:36:42.130Z,67.70
2018-08-03T00:39:11.439Z,67.10
2018-08-03T00:41:40.192Z,67.00
2018-08-03T00:44:08.923Z,66.50
2018-08-03T00:46:37.493Z,67.70
2018-08-03T00:49:06.098Z,67.30
2018-08-03T00:51:34.681Z,67.60
2018-08-03T00:54:03.455Z,67.70
2018-08-03T00:56:32.074Z,67.50
2018-08-03T00:59:00.639Z,67.90
2018-08-03T01:01:29.204Z,68.10
2018-08-03T01:03:57.865Z,68.30
2018-08-03T01:06:26.387Z,68.00
2018-08-03T01:08:54.911Z,68.20
2018-08-03T01:11:23.607Z,68.50
2018-08-03T01:13:52.178Z,68.80
2018-08-03T01:16:20.792Z,68.90
2018-08-03T01:18:49.311Z,70.00
2018-08-03T01:21:17.936Z,69.00
2018-08-03T01:23:46.636Z,69.20
2018-08-03T01:26:15.237Z,70.80
2018-08-03T01:28:43.942Z,70.00
2018-08-03T01:31:12.471Z,70.20
2018-08-03T01:33:41.035Z,70.10
2018-08-03T01:36:09.521Z,70.30
2018-08-03T01:38:38.193Z,70.50
2018-08-03T01:41:06.895Z,70.60
2018-08-03T01:43:35.457Z,70.60
2018-08-03T01:46:04.003Z,70.50
2018-08-03T01:48:32.531Z,70.60
2018-08-03T01:51:01.071Z,70.70
2018-08-03T01:53:29.822Z,70.40
2018-08-03T01:55:58.301Z,70.20
2018-08-03T01:58:26.983Z,70.20
2018-08-03T02:00:55.548Z,70.40
2018-08-03T02:03:24.155Z,70.70
2018-08-03T02:05:52.700Z,71.00
2018-08-03T02:08:21.254Z,70.70
2018-08-03T02:10:49.780Z,70.70
2018-08-03T02:13:18.418Z,70.90
2018-08-03T02:15:47.106Z,70.40
2018-08-03T02:18:15.633Z,70.50
2018-08-03T02:20:44.197Z,70.70
2018-08-03T02:23:12.819Z,71.00
2018-08-03T02:25:41.373Z,71.20
2018-08-03T02:28:09.959Z,71.70
2018-08-03T02:30:38.597Z,72.00
2018-08-03T02:35:35.296Z,72.20
2018-08-03T02:38:03.863Z,72.20
2018-08-03T02:40:32.428Z,72.50
2018-08-03T02:43:00.937Z,72.50
2018-08-03T02:45:29.542Z,72.50
2018-08-03T02:47:58.096Z,72.50
2018-08-03T02:50:26.619Z,73.00
2018-08-03T02:52:55.136Z,73.30
2018-08-03T02:55:23.675Z,73.20
2018-08-03T02:57:52.290Z,73.40
2018-08-03T03:00:20.855Z,73.60
2018-08-03T03:02:49.519Z,74.00
2018-08-03T03:05:18.126Z,73.90
2018-08-03T03:07:46.724Z,73.90
2018-08-03T03:10:15.329Z,73.60
2018-08-03T03:12:43.889Z,73.40
2018-08-03T03:15:12.432Z,73.60
2018-08-03T03:17:41.008Z,73.90
2018-08-03T03:20:09.602Z,73.60
2018-08-03T03:22:38.175Z,73.90
2018-08-03T03:25:07.099Z,74.10
2018-08-03T03:30:04.943Z,74.20
2018-08-03T03:32:33.726Z,74.20
2018-08-03T03:35:02.294Z,74.10
2018-08-03T03:37:30.859Z,74.30
2018-08-03T03:39:59.491Z,74.40
2018-08-03T03:42:28.090Z,74.50
2018-08-03T03:44:56.908Z,74.80
2018-08-03T03:47:25.398Z,74.70
2018-08-03T03:49:53.927Z,75.00
2018-08-03T03:52:22.515Z,75.20
2018-08-03T03:54:51.124Z,75.90
2018-08-03T03:57:19.691Z,76.10
2018-08-03T03:59:48.200Z,76.20
2018-08-03T04:02:16.699Z,76.80
2018-08-03T04:04:45.339Z,75.20
2018-08-03T04:07:13.877Z,74.90
2018-08-03T04:09:42.501Z,75.00
2018-08-03T04:14:39.475Z,75.50
2018-08-03T04:17:08.036Z,75.10
2018-08-03T04:19:36.775Z,75.30
2018-08-03T04:22:05.390Z,75.60
2018-08-03T04:24:33.964Z,75.70
2018-08-03T04:27:02.582Z,76.10
2018-08-03T04:29:31.097Z,76.10
2018-08-03T04:31:59.699Z,76.00
2018-08-03T04:34:28.223Z,75.90
2018-08-03T04:36:56.763Z,76.00
2018-08-03T04:39:25.300Z,76.20
2018-08-03T04:41:53.802Z,76.30
2018-08-03T04:44:22.482Z,76.30
2018-08-03T04:46:51.087Z,76.50
2018-08-03T04:49:19.728Z,76.40
2018-08-03T04:51:48.292Z,76.30
2018-08-03T04:54:17.010Z,76.50
2018-08-03T04:56:45.510Z,76.60
2018-08-03T04:59:14.040Z,76.50
2018-08-03T05:01:42.673Z,76.50
2018-08-03T05:04:11.243Z,76.50
2018-08-03T05:06:39.764Z,76.50
2018-08-03T05:09:08.498Z,76.40
2018-08-03T05:11:37.018Z,76.60
2018-08-03T05:14:05.531Z,76.30
2018-08-03T05:16:34.283Z,76.40
2018-08-03T05:19:02.901Z,76.00
2018-08-03T05:21:31.432Z,76.30
2018-08-03T05:24:00.032Z,76.10
2018-08-03T05:26:28.559Z,76.20
2018-08-03T05:31:25.272Z,76.70
2018-08-03T05:33:53.812Z,75.90
2018-08-03T05:36:22.459Z,75.80
2018-08-03T05:38:50.992Z,75.70
2018-08-03T05:41:19.540Z,75.10
2018-08-03T05:43:48.064Z,75.20
2018-08-03T05:46:16.611Z,75.20
2018-08-03T05:48:45.051Z,75.00
2018-08-03T05:51:13.883Z,74.80
2018-08-03T05:53:42.419Z,74.50
2018-08-03T05:56:11.112Z,74.50
2018-08-03T05:58:39.668Z,74.30
2018-08-03T06:01:08.547Z,74.20
2018-08-03T06:03:37.158Z,74.10
2018-08-03T06:06:05.825Z,73.90
2018-08-03T06:08:34.370Z,74.00
2018-08-03T06:11:02.895Z,73.60
2018-08-03T06:13:31.436Z,73.70
2018-08-03T06:15:59.924Z,73.80
2018-08-03T06:18:28.454Z,73.90
2018-08-03T06:20:57.019Z,73.90
2018-08-03T06:23:25.648Z,74.10
2018-08-03T06:25:54.152Z,74.20
2018-08-03T06:28:22.694Z,74.30
2018-08-03T06:30:51.191Z,74.30
2018-08-03T06:35:47.925Z,74.20
2018-08-03T06:38:16.551Z,73.70
2018-08-03T06:40:45.044Z,73.70
2018-08-03T06:43:13.621Z,73.20
2018-08-03T06:45:42.131Z,73.30
2018-08-03T06:48:10.658Z,73.50
2018-08-03T06:50:39.200Z,72.80
2018-08-03T06:53:08.138Z,73.70
2018-08-03T06:55:36.718Z,72.80
2018-08-03T06:58:05.299Z,72.50
2018-08-03T07:00:33.850Z,72.50
2018-08-03T07:03:02.371Z,72.50
2018-08-03T07:07:59.051Z,72.50
2018-08-03T07:10:27.663Z,72.40
2018-08-03T07:12:56.332Z,72.30
2018-08-03T07:15:24.966Z,72.50
2018-08-03T07:17:53.508Z,72.20
2018-08-03T07:20:22.352Z,72.00
2018-08-03T07:22:51.323Z,71.90
2018-08-03T07:25:19.920Z,71.80
2018-08-03T07:27:48.471Z,71.70
2018-08-03T07:30:17.055Z,71.50
2018-08-03T07:32:45.663Z,71.20
2018-08-03T07:35:14.253Z,70.50
2018-08-03T07:37:42.771Z,70.60
2018-08-03T07:40:11.451Z,70.30
2018-08-03T07:42:39.987Z,70.00
2018-08-03T07:45:08.532Z,70.60
2018-08-03T07:47:37.059Z,70.60
2018-08-03T07:50:05.761Z,70.00
2018-08-03T07:52:34.346Z,69.80
2018-08-03T07:55:02.856Z,69.50
2018-08-03T07:57:31.484Z,69.40
2018-08-03T07:59:59.949Z,68.90
2018-08-03T08:02:28.568Z,68.80
2018-08-03T08:04:57.114Z,68.90
2018-08-03T08:07:25.787Z,68.10
2018-08-03T08:09:54.375Z,67.90
2018-08-03T08:12:23.219Z,67.90
2018-08-03T08:14:51.772Z,67.70
2018-08-03T08:17:20.293Z,67.40
2018-08-03T08:19:48.859Z,67.10
2018-08-03T08:22:17.421Z,66.20
2018-08-03T08:24:47.036Z,65.50
2018-08-03T08:27:15.550Z,65.20
2018-08-03T08:29:44.194Z,65.60
2018-08-03T08:32:12.778Z,65.90
2018-08-03T08:34:41.331Z,65.50
2018-08-03T08:37:09.869Z,64.00
2018-08-03T08:39:38.513Z,65.00
2018-08-03T08:44:35.639Z,64.10
2018-08-03T08:47:04.250Z,64.10
2018-08-03T08:49:32.789Z,64.50
2018-08-03T08:52:01.318Z,63.50
2018-08-03T08:54:30.017Z,62.80
2018-08-03T08:59:26.784Z,63.10
2018-08-03T09:01:55.335Z,62.90
2018-08-03T09:04:23.840Z,63.30
2018-08-03T09:06:52.393Z,61.70
2018-08-03T09:09:21.770Z,62.30
2018-08-03T09:11:50.359Z,63.10
2018-08-03T09:14:18.967Z,62.60
2018-08-03T09:16:47.503Z,62.00
2018-08-03T09:19:16.020Z,62.00
2018-08-03T09:21:44.741Z,63.30
2018-08-03T09:24:13.289Z,62.10
2018-08-03T09:26:41.874Z,62.00
2018-08-03T09:29:10.787Z,62.30
2018-08-03T09:31:39.435Z,61.60
2018-08-03T09:34:08.394Z,62.00
2018-08-03T09:36:37.341Z,59.80
2018-08-03T09:39:08.114Z,60.00
2018-08-03T09:41:36.643Z,59.70
2018-08-03T09:44:05.570Z,59.50
2018-08-03T09:46:34.104Z,59.70
2018-08-03T09:49:02.881Z,60.10
2018-08-03T09:51:31.470Z,59.20
2018-08-03T09:54:00.096Z,59.30
2018-08-03T09:56:28.648Z,59.50
2018-08-03T09:58:57.211Z,58.60
2018-08-03T10:01:25.835Z,59.80
2018-08-03T10:03:54.862Z,58.40
2018-08-03T10:06:23.536Z,57.80
2018-08-03T10:08:52.092Z,57.00
2018-08-03T10:11:20.610Z,57.40
2018-08-03T10:13:49.147Z,56.80
2018-08-03T10:16:17.692Z,57.50
2018-08-03T10:18:46.316Z,56.50
2018-08-03T10:21:14.963Z,55.10
2018-08-03T10:23:43.502Z,55.90
2018-08-03T10:26:12.239Z,57.40
2018-08-03T10:28:40.806Z,56.80
2018-08-03T10:31:09.499Z,56.10
2018-08-03T10:33:38.014Z,55.70
2018-08-03T10:36:06.915Z,56.00
2018-08-03T10:38:35.642Z,56.70
2018-08-03T10:41:04.431Z,55.80
2018-08-03T10:43:32.968Z,56.40
2018-08-03T10:46:01.517Z,55.60
2018-08-03T10:48:30.126Z,54.30
2018-08-03T10:53:27.099Z,52.70
2018-08-03T10:55:55.644Z,53.30
2018-08-03T10:58:24.310Z,54.30
2018-08-03T11:00:52.894Z,53.30
2018-08-03T11:03:21.487Z,54.00
2018-08-03T11:05:50.112Z,53.80
2018-08-03T11:08:18.695Z,50.70
2018-08-03T11:10:47.239Z,52.60
2018-08-03T11:13:15.794Z,50.80
2018-08-03T11:15:44.327Z,49.60
2018-08-03T11:18:12.941Z,48.50
2018-08-03T11:20:41.548Z,49.10
2018-08-03T11:23:10.185Z,49.00
2018-08-03T11:25:38.865Z,48.10
2018-08-03T11:30:35.732Z,47.30
2018-08-03T11:33:04.417Z,49.10
2018-08-03T11:35:32.987Z,48.60
2018-08-03T11:38:01.659Z,46.70
2018-08-03T11:40:30.259Z,45.00
2018-08-03T11:42:59.059Z,45.10
2018-08-03T11:45:27.659Z,45.90
2018-08-03T11:47:56.187Z,45.90
2018-08-03T11:50:24.876Z,43.80
2018-08-03T11:52:53.383Z,43.80
2018-08-03T11:55:22.048Z,43.60
2018-08-03T11:57:50.663Z,43.20
2018-08-03T12:00:19.364Z,44.40
2018-08-03T12:02:48.036Z,42.50
2018-08-03T12:05:16.775Z,43.40
2018-08-03T12:07:45.388Z,43.90
2018-08-03T12:10:14.071Z,42.80
2018-08-03T12:12:42.646Z,44.00
2018-08-03T12:15:11.320Z,43.60
2018-08-03T12:17:39.871Z,42.70
2018-08-03T12:20:08.425Z,41.70
2018-08-03T12:22:36.970Z,41.10
2018-08-03T12:25:05.775Z,40.70
2018-08-03T12:27:34.316Z,41.60
2018-08-03T12:30:03.107Z,42.70
2018-08-03T12:32:31.770Z,41.40
2018-08-03T12:35:00.304Z,41.50
2018-08-03T12:37:28.941Z,41.70
2018-08-03T12:39:57.566Z,42.10
2018-08-03T12:44:54.561Z,41.60
2018-08-03T12:47:23.096Z,41.10
2018-08-03T12:49:51.679Z,40.30
2018-08-03T12:52:20.254Z,40.00
2018-08-03T12:54:49.011Z,40.30
2018-08-03T12:57:17.680Z,39.60
2018-08-03T12:59:46.306Z,40.90
2018-08-03T13:02:15.082Z,39.70
2018-08-03T13:04:43.744Z,39.20
2018-08-03T13:07:12.505Z,39.70
2018-08-03T13:09:41.216Z,40.90
2018-08-03T13:12:09.896Z,38.30
2018-08-03T13:14:38.572Z,40.50
2018-08-03T13:17:07.346Z,39.20
2018-08-03T13:19:35.897Z,38.10
2018-08-03T13:22:04.449Z,37.50
2018-08-03T13:24:33.017Z,38.50
2018-08-03T13:27:01.759Z,37.40
2018-08-03T13:29:30.729Z,38.00
2018-08-03T13:31:59.305Z,37.90
2018-08-03T13:34:27.884Z,37.40
2018-08-03T13:36:56.519Z,36.90
2018-08-03T13:39:25.374Z,37.90
2018-08-03T13:41:53.939Z,37.60
2018-08-03T13:44:22.700Z,38.60
2018-08-03T13:46:51.868Z,38.00
2018-08-03T13:51:48.808Z,37.10
2018-08-03T13:54:17.406Z,36.10
2018-08-03T13:56:46.016Z,36.00
2018-08-03T13:59:14.546Z,35.80
2018-08-03T14:01:54.531Z,36.50
2018-08-03T14:06:51.525Z,35.40
2018-08-03T14:09:20.195Z,35.50
2018-08-03T14:11:48.842Z,35.80
2018-08-03T14:14:17.585Z,36.80
2018-08-03T14:16:46.345Z,37.90
2018-08-03T14:19:15.122Z,37.80
2018-08-03T14:21:43.769Z,37.30
2018-08-03T14:24:12.396Z,36.50
2018-08-03T14:26:41.028Z,35.60
2018-08-03T14:29:09.604Z,36.50
2018-08-03T14:31:38.349Z,35.50
2018-08-03T14:34:06.979Z,35.40
2018-08-03T14:36:35.544Z,36.00
2018-08-03T14:39:06.143Z,34.90
2018-08-03T14:41:34.821Z,35.60
2018-08-03T14:44:03.426Z,34.90
2018-08-03T14:46:32.250Z,35.80
2018-08-03T14:49:01.014Z,34.50
2018-08-03T14:51:29.582Z,35.10
2018-08-03T14:53:58.168Z,34.70
2018-08-03T14:56:26.773Z,35.50
2018-08-03T14:58:55.598Z,35.90
2018-08-03T15:03:52.812Z,35.90
2018-08-03T15:06:21.516Z,34.70
2018-08-03T15:08:50.164Z,35.40
2018-08-03T15:11:18.894Z,35.20
2018-08-03T15:13:47.421Z,34.60
2018-08-03T15:16:16.017Z,34.80
2018-08-03T15:18:44.557Z,35.70
2018-08-03T15:21:13.226Z,34.10
2018-08-03T15:23:41.815Z,34.70
2018-08-03T15:26:10.436Z,33.90
2018-08-03T15:28:39.111Z,33.60
2018-08-03T15:31:07.702Z,33.40
2018-08-03T15:33:36.280Z,33.40
2018-08-03T15:38:32.980Z,35.10
2018-08-03T15:41:01.582Z,34.70
2018-08-03T15:43:30.172Z,34.50
2018-08-03T15:45:58.742Z,34.30
2018-08-03T15:48:27.459Z,35.10
2018-08-03T15:50:56.085Z,34.90
2018-08-03T15:53:24.791Z,35.30
2018-08-03T15:55:53.487Z,35.50
2018-08-03T15:58:22.104Z,36.00
2018-08-03T16:00:50.697Z,35.40
2018-08-03T16:03:19.342Z,34.70
2018-08-03T16:05:47.838Z,35.70
2018-08-03T16:08:16.550Z,35.20
2018-08-03T16:10:45.220Z,35.10
2018-08-03T16:13:14.061Z,35.00
2018-08-03T16:15:42.600Z,35.50
2018-08-03T16:18:11.362Z,34.80
2018-08-03T16:20:40.039Z,35.30
2018-08-03T16:23:08.655Z,35.40
2018-08-03T16:25:37.231Z,34.90
2018-08-03T16:28:06.023Z,35.30
2018-08-03T16:30:34.599Z,35.00
2018-08-03T16:33:03.314Z,35.10
2018-08-03T16:35:31.871Z,34.60
2018-08-03T16:38:00.463Z,34.70
2018-08-03T16:40:29.043Z,35.90
2018-08-03T16:42:57.689Z,35.80
2018-08-03T16:45:26.462Z,35.20
2018-08-03T16:47:55.177Z,35.50
2018-08-03T16:50:23.859Z,36.00
2018-08-03T16:52:52.567Z,35.70
2018-08-03T16:55:21.168Z,35.10
2018-08-03T16:57:49.814Z,35.20
2018-08-03T17:00:19.056Z,36.00
2018-08-03T17:02:48.364Z,36.20
2018-08-03T17:05:16.934Z,36.30
2018-08-03T17:07:45.473Z,36.30
2018-08-03T17:10:14.045Z,36.90
2018-08-03T17:12:42.644Z,36.30
2018-08-03T17:15:11.201Z,36.90
2018-08-03T17:17:39.762Z,37.10
2018-08-03T17:20:08.531Z,37.10
2018-08-03T17:22:37.179Z,37.30
2018-08-03T17:25:05.880Z,37.50
2018-08-03T17:27:34.549Z,38.40
2018-08-03T17:32:31.304Z,38.10
2018-08-03T17:34:59.815Z,38.00
2018-08-03T17:37:28.380Z,38.20
2018-08-03T17:39:57.052Z,38.20
2018-08-03T17:42:25.634Z,38.40
2018-08-03T17:44:54.187Z,38.50
2018-08-03T17:47:22.798Z,38.30
2018-08-03T17:49:51.395Z,38.70
2018-08-03T17:52:20.097Z,39.70
2018-08-03T17:54:48.799Z,38.90
2018-08-03T17:57:17.364Z,38.70
2018-08-03T17:59:45.997Z,39.10
2018-08-03T18:02:14.516Z,39.60
2018-08-03T18:04:43.346Z,39.50
2018-08-03T18:07:11.933Z,39.90
2018-08-03T18:09:40.575Z,41.60
2018-08-03T18:12:09.178Z,41.70
2018-08-03T18:14:37.731Z,42.40
2018-08-03T18:17:06.433Z,42.10
2018-08-03T18:19:35.026Z,42.30
2018-08-03T18:22:02.791Z,42.60
2018-08-03T18:24:35.301Z,42.50
2018-08-03T18:27:03.882Z,43.70
2018-08-03T18:29:32.396Z,43.60
2018-08-03T18:32:01.122Z,43.70
2018-08-03T18:34:29.979Z,44.50
2018-08-03T18:36:58.544Z,44.10
2018-08-03T18:39:27.175Z,44.40
2018-08-03T18:41:55.799Z,45.40
2018-08-03T18:44:24.423Z,46.00
2018-08-03T18:46:52.990Z,46.60
2018-08-03T18:49:21.533Z,46.10
2018-08-03T18:51:50.110Z,45.90
2018-08-03T18:54:19.031Z,46.00
2018-08-03T18:56:47.628Z,47.00
2018-08-03T18:59:16.270Z,47.90
2018-08-03T19:01:44.972Z,47.50
2018-08-03T19:04:13.650Z,47.90
2018-08-03T19:06:42.208Z,48.20
2018-08-03T19:09:10.754Z,48.40
2018-08-03T19:11:39.378Z,48.80
2018-08-03T19:14:07.931Z,49.60
2018-08-03T19:16:36.536Z,48.10
2018-08-03T19:19:05.118Z,47.80
2018-08-03T19:21:33.812Z,47.70
2018-08-03T19:24:02.571Z,48.60
2018-08-03T19:26:31.298Z,49.30
2018-08-03T19:28:59.935Z,49.10
2018-08-03T19:31:28.483Z,49.20
2018-08-03T19:33:57.167Z,48.90
2018-08-03T19:36:25.747Z,48.00
2018-08-03T19:38:54.523Z,48.00
2018-08-03T19:41:23.982Z,48.00
2018-08-03T19:43:52.932Z,47.80
2018-08-03T19:46:21.527Z,48.30
2018-08-03T19:48:50.140Z,48.60
2018-08-03T19:51:18.815Z,49.00
2018-08-03T19:53:47.424Z,48.90
2018-08-03T19:56:16.120Z,48.60
2018-08-03T19:58:44.908Z,48.70
2018-08-03T20:01:13.551Z,48.90
2018-08-03T20:03:42.103Z,49.60
2018-08-03T20:08:38.922Z,49.00
2018-08-03T20:11:07.551Z,49.70
2018-08-03T20:13:36.300Z,50.60
2018-08-03T20:16:04.918Z,51.20
2018-08-03T20:18:33.451Z,51.10
2018-08-03T20:21:01.979Z,51.90
2018-08-03T20:23:30.792Z,52.10
2018-08-03T20:25:59.756Z,53.30
2018-08-03T20:28:28.359Z,52.70
2018-08-03T20:30:57.065Z,52.50
2018-08-03T20:33:25.637Z,52.90
2018-08-03T20:35:54.344Z,53.20
2018-08-03T20:38:23.044Z,54.10
2018-08-03T20:40:51.592Z,54.80
2018-08-03T20:43:20.202Z,54.50
2018-08-03T20:45:48.827Z,54.10
2018-08-03T20:48:17.543Z,54.10
2018-08-03T20:50:46.176Z,54.00
2018-08-03T20:53:14.904Z,54.00
2018-08-03T20:55:43.540Z,53.70
2018-08-03T20:58:12.137Z,54.30
2018-08-03T21:00:40.824Z,53.70
2018-08-03T21:03:09.434Z,54.30
2018-08-03T21:05:38.051Z,54.20
2018-08-03T21:08:06.777Z,54.30
2018-08-03T21:10:35.302Z,54.60
2018-08-03T21:13:04.038Z,54.50
2018-08-03T21:15:32.620Z,54.60
2018-08-03T21:18:01.763Z,55.50
2018-08-03T21:20:30.335Z,55.50
2018-08-03T21:22:59.013Z,56.00
2018-08-03T21:25:27.619Z,55.80
2018-08-03T21:27:56.367Z,55.70
2018-08-03T21:30:25.071Z,54.60
2018-08-03T21:32:53.686Z,54.50
2018-08-03T21:35:22.235Z,54.00
2018-08-03T21:37:50.788Z,53.90
2018-08-03T21:40:19.560Z,54.20
2018-08-03T21:42:48.287Z,54.50
2018-08-03T21:45:16.963Z,55.70
2018-08-03T21:47:45.614Z,55.80
2018-08-03T21:50:14.240Z,56.00
2018-08-03T21:52:42.837Z,56.00
2018-08-03T21:57:39.704Z,56.10
2018-08-03T22:00:11.608Z,57.30
2018-08-03T22:02:40.565Z,57.40
2018-08-03T22:05:09.456Z,57.10
2018-08-03T22:07:38.408Z,57.40
2018-08-03T22:10:07.160Z,57.80
2018-08-03T22:12:35.810Z,58.10
2018-08-03T22:15:04.747Z,57.70
2018-08-03T22:17:33.404Z,57.70
2018-08-03T22:20:01.989Z,58.20
2018-08-03T22:22:30.622Z,58.80
2018-08-03T22:24:59.234Z,58.40
2018-08-03T22:27:28.199Z,58.50
2018-08-03T22:29:56.748Z,59.00
2018-08-03T22:32:25.309Z,59.00
2018-08-03T22:34:53.931Z,59.10
2018-08-03T22:37:22.600Z,59.20
2018-08-03T22:39:51.360Z,59.40
2018-08-03T22:42:20.052Z,59.30
2018-08-03T22:44:48.808Z,58.80
2018-08-03T22:47:17.396Z,58.60
2018-08-03T22:49:45.943Z,59.00
2018-08-03T22:52:14.645Z,59.20
2018-08-03T22:54:43.174Z,59.70
2018-08-03T22:57:11.859Z,59.30
2018-08-03T22:59:40.522Z,59.20
2018-08-03T23:02:09.170Z,59.50
2018-08-03T23:04:38.891Z,59.40
2018-08-03T23:07:08.185Z,59.40
2018-08-03T23:09:36.740Z,60.20
2018-08-03T23:12:05.391Z,60.20
2018-08-03T23:14:34.135Z,60.10
2018-08-03T23:17:02.868Z,59.70
2018-08-03T23:19:31.415Z,59.80
2018-08-03T23:21:59.928Z,60.30
2018-08-03T23:24:28.535Z,60.20
2018-08-03T23:26:57.099Z,59.70
2018-08-03T23:29:25.959Z,59.70
2018-08-03T23:31:54.920Z,59.80
2018-08-03T23:34:23.528Z,59.70
2018-08-03T23:36:52.102Z,61.00
2018-08-03T23:39:20.683Z,60.00
2018-08-03T23:41:49.195Z,60.10
2018-08-03T23:44:17.913Z,59.50
2018-08-03T23:46:46.461Z,59.10
2018-08-03T23:49:14.999Z,59.40
2018-08-03T23:51:43.803Z,59.60
2018-08-03T23:54:12.325Z,59.30
2018-08-03T23:56:47.236Z,59.50
2018-08-03T23:59:15.739Z,59.50
